createdAt,value
2019-01-21T00:01:50.808Z,39.80
2019-01-21T00:04:20.558Z,43.87
2019-01-21T00:06:50.412Z,39.77
2019-01-21T00:09:20.168Z,38.93
2019-01-21T00:11:50.009Z,41.80
2019-01-21T00:14:19.805Z,39.87
2019-01-21T00:16:49.598Z,39.63
2019-01-21T00:19:19.318Z,40.73
2019-01-21T00:21:49.109Z,40.97
2019-01-21T00:24:18.834Z,39.97
2019-01-21T00:26:48.606Z,39.23
2019-01-21T00:29:18.427Z,32.57
2019-01-21T00:31:48.357Z,38.20
2019-01-21T00:34:18.392Z,35.83
2019-01-21T00:36:48.062Z,36.17
2019-01-21T00:39:17.773Z,37.47
2019-01-21T00:41:47.586Z,34.77
2019-01-21T00:44:17.322Z,42.80
2019-01-21T00:46:47.053Z,34.47
2019-01-21T00:49:16.740Z,34.13
2019-01-21T00:51:46.382Z,40.27
2019-01-21T00:54:16.166Z,35.43
2019-01-21T00:56:45.910Z,38.63
2019-01-21T00:59:15.712Z,34.20
2019-01-21T01:01:45.505Z,39.80
2019-01-21T01:04:15.300Z,42.07
2019-01-21T01:06:45.062Z,43.63
2019-01-21T01:09:14.876Z,34.80
2019-01-21T01:11:44.760Z,38.23
2019-01-21T01:14:14.497Z,38.13
2019-01-21T01:16:44.173Z,38.03
2019-01-21T01:19:13.868Z,42.47
2019-01-21T01:21:43.582Z,38.00
2019-01-21T01:24:13.354Z,37.07
2019-01-21T01:26:44.214Z,38.63
2019-01-21T01:29:13.984Z,37.10
2019-01-21T01:31:43.717Z,38.97
2019-01-21T01:34:13.410Z,40.33
2019-01-21T01:36:43.657Z,40.87
2019-01-21T01:39:13.436Z,35.67
2019-01-21T01:41:43.197Z,40.17
2019-01-21T01:44:12.946Z,40.83
2019-01-21T01:46:43.410Z,37.90
2019-01-21T01:49:13.139Z,35.60
2019-01-21T01:51:42.936Z,39.67
2019-01-21T01:54:12.829Z,40.00
2019-01-21T01:56:42.676Z,40.17
2019-01-21T01:59:12.925Z,41.13
2019-01-21T02:01:42.637Z,40.17
2019-01-21T02:04:12.361Z,42.70
2019-01-21T02:06:42.061Z,46.67
2019-01-21T02:09:11.924Z,41.43
2019-01-21T02:11:41.939Z,41.83
2019-01-21T02:14:11.678Z,40.67
2019-01-21T02:16:41.469Z,37.20
2019-01-21T02:19:11.236Z,37.80
2019-01-21T02:21:42.378Z,38.83
2019-01-21T02:24:15.732Z,40.47
2019-01-21T02:27:19.442Z,36.37
2019-01-21T02:30:19.455Z,45.07
2019-01-21T02:33:37.536Z,43.50
2019-01-21T02:36:45.290Z,41.00
2019-01-21T02:39:55.969Z,37.63
2019-01-21T02:42:44.706Z,41.63
2019-01-21T02:45:55.109Z,45.93
2019-01-21T02:48:48.357Z,45.07
2019-01-21T02:51:55.784Z,49.07
2019-01-21T02:54:49.947Z,43.87
2019-01-21T02:58:00.655Z,41.13
2019-01-21T03:01:09.791Z,43.30
2019-01-21T03:04:09.333Z,44.10
2019-01-21T03:07:14.694Z,43.53
2019-01-21T03:10:24.393Z,43.67
2019-01-21T03:13:42.557Z,42.10
2019-01-21T03:16:50.492Z,43.40
2019-01-21T03:19:46.433Z,44.40
2019-01-21T03:22:55.928Z,45.30
2019-01-21T03:26:02.214Z,45.43
2019-01-21T03:28:55.729Z,43.90
2019-01-21T03:32:22.110Z,47.87
2019-01-21T03:35:19.815Z,52.60
2019-01-21T03:38:33.044Z,51.80
2019-01-21T03:41:20.338Z,43.63
2019-01-21T03:44:38.524Z,48.63
2019-01-21T03:47:27.516Z,44.47
2019-01-21T03:50:39.690Z,48.13
2019-01-21T03:54:01.957Z,53.83
2019-01-21T03:57:14.023Z,49.70
2019-01-21T04:00:20.427Z,47.10
2019-01-21T04:03:16.569Z,52.67
2019-01-21T04:06:07.335Z,54.13
2019-01-21T04:09:22.849Z,49.87
2019-01-21T04:12:25.157Z,44.90
2019-01-21T04:15:34.918Z,50.33
2019-01-21T04:18:35.598Z,47.53
2019-01-21T04:21:29.115Z,45.77
2019-01-21T04:24:32.281Z,47.60
2019-01-21T04:27:49.067Z,50.00
2019-01-21T04:31:11.397Z,105.90
2019-01-21T04:34:31.106Z,65.87
2019-01-21T04:37:51.281Z,52.37
2019-01-21T04:40:35.104Z,49.20
2019-01-21T04:43:27.925Z,48.80
2019-01-21T04:46:14.521Z,51.07
2019-01-21T04:49:40.534Z,47.63
2019-01-21T04:53:03.378Z,48.33
2019-01-21T04:56:25.101Z,53.20
2019-01-21T04:59:32.933Z,49.70
2019-01-21T05:03:04.142Z,53.77
2019-01-21T05:05:59.409Z,59.70
2019-01-21T05:09:18.940Z,53.67
2019-01-21T05:12:33.446Z,49.43
2019-01-21T05:15:35.057Z,53.87
2019-01-21T05:18:44.403Z,56.33
2019-01-21T05:21:52.988Z,53.83
2019-01-21T05:25:06.121Z,53.90
2019-01-21T05:28:11.133Z,54.73
2019-01-21T05:31:36.465Z,50.57
2019-01-21T05:34:56.141Z,56.23
2019-01-21T05:38:00.339Z,61.53
2019-01-21T05:41:01.773Z,57.70
2019-01-21T05:44:04.715Z,58.00
2019-01-21T05:47:36.409Z,61.57
2019-01-21T05:51:05.018Z,59.17
2019-01-21T05:54:00.684Z,57.90
2019-01-21T05:57:25.641Z,61.97
2019-01-21T06:00:33.486Z,61.50
2019-01-21T06:03:47.444Z,55.43
2019-01-21T06:06:51.236Z,57.97
2019-01-21T06:09:35.135Z,57.63
2019-01-21T06:12:42.150Z,60.50
2019-01-21T06:15:31.030Z,50.77
2019-01-21T06:18:39.552Z,61.13
2019-01-21T06:21:46.707Z,63.47
2019-01-21T06:25:06.114Z,60.53
2019-01-21T06:28:04.448Z,62.97
2019-01-21T06:31:30.497Z,63.40
2019-01-21T06:34:39.749Z,57.27
2019-01-21T06:37:56.238Z,56.13
2019-01-21T06:41:09.549Z,54.57
2019-01-21T06:44:12.630Z,57.07
2019-01-21T06:47:21.926Z,56.43
2019-01-21T06:50:32.380Z,186.57
2019-01-21T06:53:32.380Z,61.00
2019-01-21T06:56:31.843Z,59.27
2019-01-21T06:59:48.025Z,128.40
2019-01-21T07:02:54.050Z,66.57
2019-01-21T07:06:02.330Z,57.50
2019-01-21T07:08:50.493Z,68.37
2019-01-21T07:11:52.942Z,65.87
2019-01-21T07:15:09.846Z,64.27
2019-01-21T07:18:19.685Z,57.57
2019-01-21T07:21:26.208Z,66.40
2019-01-21T07:24:49.200Z,66.23
2019-01-21T07:27:54.389Z,59.27
2019-01-21T07:30:47.341Z,62.93
2019-01-21T07:33:56.771Z,61.80
2019-01-21T07:37:10.954Z,58.70
2019-01-21T07:40:32.569Z,59.80
2019-01-21T07:43:37.732Z,60.53
2019-01-21T07:47:21.440Z,58.00
2019-01-21T07:50:34.817Z,58.83
2019-01-21T07:53:46.975Z,60.50
2019-01-21T08:00:07.579Z,60.10
2019-01-21T08:03:16.983Z,62.73
2019-01-21T08:06:12.705Z,62.93
2019-01-21T08:09:07.430Z,53.17
2019-01-21T08:12:31.838Z,61.87
2019-01-21T08:15:32.345Z,68.83
2019-01-21T08:18:27.897Z,66.87
2019-01-21T08:21:35.401Z,64.40
2019-01-21T08:25:03.324Z,66.53
2019-01-21T08:28:04.649Z,63.80
2019-01-21T08:31:33.415Z,62.43
2019-01-21T08:34:42.597Z,61.93
2019-01-21T08:37:35.645Z,67.33
2019-01-21T08:40:34.741Z,62.03
2019-01-21T08:43:38.189Z,64.50
2019-01-21T08:46:31.893Z,60.17
2019-01-21T08:49:38.071Z,76.57
2019-01-21T08:52:35.914Z,63.20
2019-01-21T08:56:00.563Z,63.00
2019-01-21T08:59:25.931Z,65.50
2019-01-21T09:02:23.869Z,61.70
2019-01-21T09:05:29.412Z,61.43
2019-01-21T09:08:26.041Z,67.50
2019-01-21T09:11:29.356Z,60.73
2019-01-21T09:15:04.317Z,59.13
2019-01-21T09:18:10.838Z,66.80
2019-01-21T09:21:32.261Z,73.63
2019-01-21T09:24:31.454Z,65.87
2019-01-21T09:27:45.217Z,63.70
2019-01-21T09:30:52.461Z,58.83
2019-01-21T09:34:01.453Z,62.47
2019-01-21T09:36:52.547Z,67.07
2019-01-21T09:40:11.748Z,71.00
2019-01-21T09:42:59.438Z,66.87
2019-01-21T09:46:05.833Z,63.70
2019-01-21T09:48:33.770Z,73.10
2019-01-21T09:51:06.395Z,66.07
2019-01-21T09:53:36.616Z,69.60
2019-01-21T09:56:07.184Z,71.20
2019-01-21T09:58:37.537Z,63.63
2019-01-21T10:01:08.258Z,69.93
2019-01-21T10:03:39.576Z,74.47
2019-01-21T10:06:10.725Z,60.90
2019-01-21T10:09:01.641Z,69.33
2019-01-21T10:12:10.329Z,67.07
2019-01-21T10:15:25.070Z,62.50
2019-01-21T10:18:22.096Z,74.57
2019-01-21T10:21:21.760Z,61.87
2019-01-21T10:24:19.274Z,65.27
2019-01-21T10:27:27.096Z,64.10
2019-01-21T10:30:26.173Z,67.13
2019-01-21T10:33:40.210Z,70.37
2019-01-21T10:36:44.457Z,63.37
2019-01-21T10:40:07.855Z,64.03
2019-01-21T10:43:21.832Z,68.07
2019-01-21T10:46:16.763Z,63.77
2019-01-21T10:49:22.660Z,63.37
2019-01-21T10:52:36.136Z,66.13
2019-01-21T10:55:41.800Z,61.33
2019-01-21T10:58:38.963Z,66.27
2019-01-21T11:01:35.346Z,62.27
2019-01-21T11:04:38.481Z,61.37
2019-01-21T11:08:04.273Z,59.63
2019-01-21T11:11:06.521Z,61.97
2019-01-21T11:14:32.093Z,58.10
2019-01-21T11:17:31.211Z,57.47
2019-01-21T11:20:40.617Z,61.07
2019-01-21T11:23:48.731Z,55.77
2019-01-21T11:26:49.797Z,61.27
2019-01-21T11:29:57.898Z,59.47
2019-01-21T11:32:53.545Z,60.97
2019-01-21T11:36:13.313Z,55.80
2019-01-21T11:39:26.047Z,56.53
2019-01-21T11:42:27.409Z,63.40
2019-01-21T11:45:24.473Z,57.80
2019-01-21T11:48:23.693Z,60.90
2019-01-21T11:51:45.002Z,58.70
2019-01-21T11:55:07.754Z,57.30
2019-01-21T11:58:23.249Z,60.93
2019-01-21T12:01:50.055Z,52.97
2019-01-21T12:04:35.802Z,58.93
2019-01-21T12:07:42.333Z,52.20
2019-01-21T12:10:53.434Z,56.27
2019-01-21T12:14:19.609Z,56.37
2019-01-21T12:17:07.997Z,54.33
2019-01-21T12:20:23.454Z,54.37
2019-01-21T12:23:34.202Z,51.43
2019-01-21T12:26:19.608Z,53.50
2019-01-21T12:29:21.253Z,49.67
2019-01-21T12:32:16.131Z,54.90
2019-01-21T12:35:13.085Z,57.47
2019-01-21T12:38:14.497Z,50.30
2019-01-21T12:40:56.454Z,50.90
2019-01-21T12:44:11.581Z,53.37
2019-01-21T12:46:49.090Z,50.63
2019-01-21T12:49:41.324Z,47.27
2019-01-21T12:52:38.871Z,48.90
2019-01-21T12:55:49.553Z,51.97
2019-01-21T12:58:45.669Z,54.93
2019-01-21T13:01:52.014Z,47.20
2019-01-21T13:05:08.473Z,53.30
2019-01-21T13:08:14.752Z,47.57
2019-01-21T13:11:23.805Z,54.13
2019-01-21T13:14:30.918Z,50.63
2019-01-21T13:17:41.689Z,47.10
2019-01-21T13:20:54.922Z,51.80
2019-01-21T13:24:07.849Z,48.13
2019-01-21T13:27:12.221Z,52.23
2019-01-21T13:30:40.993Z,54.60
2019-01-21T13:33:33.369Z,48.87
2019-01-21T13:36:52.723Z,53.27
2019-01-21T13:40:18.438Z,49.40
2019-01-21T13:43:03.582Z,47.30
2019-01-21T13:46:32.532Z,44.30
2019-01-21T13:49:27.991Z,51.83
2019-01-21T13:52:56.588Z,51.10
2019-01-21T13:55:33.645Z,53.93
2019-01-21T13:58:50.377Z,53.33
2019-01-21T14:01:57.969Z,50.43
2019-01-21T14:05:12.050Z,52.87
2019-01-21T14:08:04.481Z,53.93
2019-01-21T14:11:02.806Z,50.93
2019-01-21T14:14:03.078Z,57.70
2019-01-21T14:17:14.636Z,56.87
2019-01-21T14:20:01.125Z,57.37
2019-01-21T14:22:50.828Z,60.77
2019-01-21T14:25:47.046Z,55.87
2019-01-21T14:28:46.958Z,59.20
2019-01-21T14:32:04.677Z,58.93
2019-01-21T14:35:08.385Z,56.97
2019-01-21T14:38:11.425Z,60.13
2019-01-21T14:41:13.500Z,55.77
2019-01-21T14:44:26.226Z,53.07
2019-01-21T14:47:34.085Z,56.53
2019-01-21T14:50:25.306Z,58.50
2019-01-21T14:53:26.299Z,60.30
2019-01-21T14:56:19.711Z,66.43
2019-01-21T14:59:28.846Z,64.73
2019-01-21T15:02:20.895Z,64.60
2019-01-21T15:05:18.639Z,68.97
2019-01-21T15:08:11.262Z,67.87
2019-01-21T15:11:00.771Z,66.63
2019-01-21T15:13:39.983Z,67.53
2019-01-21T15:16:53.738Z,67.63
2019-01-21T15:19:50.523Z,67.60
2019-01-21T15:23:04.697Z,70.03
2019-01-21T15:25:40.585Z,63.53
2019-01-21T15:28:39.003Z,72.00
2019-01-21T15:31:58.490Z,74.40
2019-01-21T15:35:12.386Z,67.83
2019-01-21T15:38:15.819Z,65.03
2019-01-21T15:41:31.791Z,69.67
2019-01-21T15:44:26.324Z,62.53
2019-01-21T15:47:52.897Z,68.63
2019-01-21T15:51:21.860Z,63.17
2019-01-21T15:54:14.754Z,64.37
2019-01-21T15:57:34.069Z,69.53
2019-01-21T16:00:32.669Z,64.37
2019-01-21T16:03:28.238Z,65.00
2019-01-21T16:06:10.241Z,67.60
2019-01-21T16:09:16.101Z,67.70
2019-01-21T16:12:21.875Z,65.73
2019-01-21T16:15:03.834Z,54.63
2019-01-21T16:17:50.609Z,60.67
2019-01-21T16:20:57.350Z,63.33
2019-01-21T16:24:08.015Z,64.83
2019-01-21T16:27:24.799Z,61.97
2019-01-21T16:30:14.677Z,66.20
2019-01-21T16:33:14.888Z,60.23
2019-01-21T16:36:06.985Z,57.63
2019-01-21T16:39:01.618Z,67.63
2019-01-21T16:41:51.314Z,63.00
2019-01-21T16:44:21.087Z,68.27
2019-01-21T16:46:50.903Z,64.57
2019-01-21T16:49:20.702Z,68.13
2019-01-21T16:51:50.697Z,61.67
2019-01-21T16:54:20.513Z,69.93
2019-01-21T16:56:50.159Z,63.80
2019-01-21T16:59:19.960Z,77.23
2019-01-21T17:01:49.721Z,69.50
2019-01-21T17:04:19.520Z,76.67
2019-01-21T17:06:49.286Z,76.07
2019-01-21T17:09:18.981Z,78.83
2019-01-21T17:11:48.753Z,88.20
2019-01-21T17:14:18.596Z,82.53
2019-01-21T17:16:48.319Z,79.20
2019-01-21T17:19:18.157Z,84.87
2019-01-21T17:21:47.973Z,81.97
2019-01-21T17:24:17.785Z,90.60
2019-01-21T17:26:47.891Z,88.97
2019-01-21T17:29:17.589Z,94.80
2019-01-21T17:31:47.367Z,80.80
2019-01-21T17:34:17.017Z,88.17
2019-01-21T17:36:46.708Z,88.90
2019-01-21T17:39:16.502Z,87.37
2019-01-21T17:41:46.210Z,79.60
2019-01-21T17:44:15.979Z,89.53
2019-01-21T17:46:45.697Z,96.73
2019-01-21T17:49:15.594Z,88.13
2019-01-21T17:51:45.397Z,90.57
2019-01-21T17:54:15.201Z,89.93
2019-01-21T17:56:45.017Z,86.13
2019-01-21T17:59:14.686Z,93.63
2019-01-21T18:01:44.509Z,88.43
2019-01-21T18:04:14.300Z,85.43
2019-01-21T18:06:44.061Z,87.67
2019-01-21T18:09:13.803Z,91.87
2019-01-21T18:11:43.449Z,101.23
2019-01-21T18:14:13.350Z,82.70
2019-01-21T18:16:43.169Z,89.00
2019-01-21T18:19:13.663Z,88.50
2019-01-21T18:21:43.619Z,91.90
2019-01-21T18:24:13.256Z,81.70
2019-01-21T18:26:43.069Z,97.17
2019-01-21T18:29:12.697Z,94.50
2019-01-21T18:31:42.380Z,86.47
2019-01-21T18:34:12.055Z,86.40
2019-01-21T18:36:41.809Z,95.00
2019-01-21T18:39:14.592Z,92.27
2019-01-21T18:41:44.348Z,91.77
2019-01-21T18:44:14.105Z,92.20
2019-01-21T18:46:43.966Z,87.40
2019-01-21T18:49:13.667Z,88.27
2019-01-21T18:51:46.715Z,94.10
2019-01-21T18:54:14.781Z,98.07
2019-01-21T18:56:44.566Z,99.13
2019-01-21T18:59:14.290Z,101.37
2019-01-21T19:01:44.114Z,100.07
2019-01-21T19:04:13.844Z,87.63
2019-01-21T19:06:43.565Z,89.43
2019-01-21T19:09:13.597Z,99.93
2019-01-21T19:11:43.274Z,87.60
2019-01-21T19:14:13.068Z,99.20
2019-01-21T19:16:42.912Z,94.67
2019-01-21T19:19:12.652Z,91.13
2019-01-21T19:21:42.461Z,100.73
2019-01-21T19:24:12.241Z,88.77
2019-01-21T19:26:41.992Z,87.07
2019-01-21T19:29:11.817Z,81.03
2019-01-21T19:31:41.590Z,79.90
2019-01-21T19:34:11.381Z,87.90
2019-01-21T19:36:41.187Z,91.23
2019-01-21T19:39:11.510Z,83.90
2019-01-21T19:41:41.256Z,93.33
2019-01-21T19:44:10.972Z,94.97
2019-01-21T19:46:44.199Z,87.80
2019-01-21T19:49:12.139Z,89.53
2019-01-21T19:51:41.991Z,90.20
2019-01-21T19:54:11.789Z,89.13
2019-01-21T19:56:42.569Z,99.10
2019-01-21T19:59:12.209Z,91.10
2019-01-21T20:01:41.901Z,86.23
2019-01-21T20:04:11.640Z,95.93
2019-01-21T20:06:41.365Z,100.50
2019-01-21T20:09:11.133Z,87.97
2019-01-21T20:11:40.918Z,85.30
2019-01-21T20:14:10.841Z,93.50
2019-01-21T20:16:40.635Z,95.20
2019-01-21T20:19:11.485Z,100.23
2019-01-21T20:21:41.234Z,90.23
2019-01-21T20:24:11.001Z,92.43
2019-01-21T20:26:40.757Z,95.43
2019-01-21T20:29:10.458Z,85.10
2019-01-21T20:31:40.224Z,89.73
2019-01-21T20:34:10.039Z,91.50
2019-01-21T20:36:39.794Z,82.83
2019-01-21T20:39:10.410Z,84.47
2019-01-21T20:41:40.133Z,89.13
2019-01-21T20:44:09.812Z,89.73
2019-01-21T20:46:39.525Z,92.50
2019-01-21T20:49:09.233Z,87.60
2019-01-21T20:51:40.313Z,90.77
2019-01-21T20:54:10.056Z,91.27
2019-01-21T20:56:39.751Z,95.47
2019-01-21T20:59:09.542Z,91.17
2019-01-21T21:01:39.281Z,95.23
2019-01-21T21:04:09.032Z,93.57
2019-01-21T21:06:38.678Z,97.63
2019-01-21T21:09:09.947Z,86.00
2019-01-21T21:11:39.682Z,102.07
2019-01-21T21:14:09.371Z,90.63
2019-01-21T21:16:39.237Z,95.00
2019-01-21T21:19:09.009Z,81.73
2019-01-21T21:21:38.769Z,95.67
2019-01-21T21:24:08.565Z,91.20
2019-01-21T21:26:38.334Z,83.03
2019-01-21T21:29:10.544Z,89.90
2019-01-21T21:31:40.191Z,86.70
2019-01-21T21:34:09.864Z,89.97
2019-01-21T21:36:39.574Z,91.87
2019-01-21T21:39:09.801Z,92.00
2019-01-21T21:41:39.538Z,91.40
2019-01-21T21:44:09.393Z,82.30
2019-01-21T21:46:39.749Z,74.00
2019-01-21T21:49:09.548Z,82.47
2019-01-21T21:51:39.342Z,77.83
2019-01-21T21:54:09.122Z,82.50
2019-01-21T21:56:38.901Z,73.40
2019-01-21T21:59:08.649Z,86.43
2019-01-21T22:01:40.127Z,76.67
2019-01-21T22:04:10.119Z,82.90
2019-01-21T22:06:39.850Z,92.33
2019-01-21T22:09:09.798Z,79.50
2019-01-21T22:11:39.523Z,83.97
2019-01-21T22:14:09.215Z,88.50
2019-01-21T22:16:38.937Z,91.50
2019-01-21T22:19:08.786Z,87.43
2019-01-21T22:21:38.610Z,86.43
2019-01-21T22:24:09.480Z,88.97
2019-01-21T22:26:39.277Z,87.83
2019-01-21T22:29:08.977Z,91.33
2019-01-21T22:31:38.682Z,88.87
2019-01-21T22:34:08.482Z,99.03
2019-01-21T22:36:38.781Z,87.50
2019-01-21T22:39:09.426Z,96.33
2019-01-21T22:41:39.132Z,97.10
2019-01-21T22:44:08.806Z,99.57
2019-01-21T22:46:38.637Z,104.67
2019-01-21T22:49:08.601Z,96.63
2019-01-21T22:51:38.338Z,92.43
2019-01-21T22:54:08.087Z,93.93
2019-01-21T22:56:37.821Z,90.73
2019-01-21T22:59:07.487Z,89.37
2019-01-21T23:01:37.945Z,97.20
2019-01-21T23:04:07.647Z,95.10
2019-01-21T23:06:37.346Z,84.80
2019-01-21T23:09:09.533Z,85.57
2019-01-21T23:11:39.325Z,97.83
2019-01-21T23:14:09.818Z,87.30
2019-01-21T23:16:39.574Z,83.37
2019-01-21T23:19:09.342Z,80.67
2019-01-21T23:21:39.093Z,84.63
2019-01-21T23:24:08.946Z,94.07
2019-01-21T23:26:38.821Z,93.60
2019-01-21T23:29:08.611Z,98.73
2019-01-21T23:31:38.363Z,96.50
2019-01-21T23:34:08.099Z,93.67
2019-01-21T23:36:37.849Z,97.97
2019-01-21T23:39:08.911Z,98.67
2019-01-21T23:41:38.701Z,97.90
2019-01-21T23:44:08.429Z,98.13
2019-01-21T23:46:38.151Z,97.97
2019-01-21T23:49:07.872Z,88.70
2019-01-21T23:51:37.515Z,99.27
2019-01-21T23:54:07.614Z,94.80
2019-01-21T23:56:38.444Z,97.00
2019-01-21T23:59:08.150Z,97.93
